Independence of the Seas — C6WW4 — position and weather

sailwx.info

Track history (hours):
 
Tides and Currents Weather Stations Pressure Air Temp Water Temp Dewpoint Dewpoint Depression Visibility Wind Speed Wind Dir Waves Ship Positions

Independence of the Seas

Last reported at 2019-Apr-25 15:28 UTC. Time now 2019-Apr-25 15:48 UTC.
Position N 26°05' W 080°07'.

Length 339 m; draft 8.8 m.

Type: Passenger vessel. MMSI: 309374000.

Date/timePositionNaut miles runAvg speedWind from/ knotsBaromVisibWave heightAir tempDewpointWater temp
2019-Apr-25 15:28N 26°05' W 080°07'0 0.0
2019-Apr-25 14:58N 26°05' W 080°07'0 0.0
2019-Apr-25 14:28N 26°05' W 080°07'0 0.0
2019-Apr-25 13:58N 26°05' W 080°07'0 0.0
2019-Apr-25 13:28N 26°05' W 080°07'0 0.0
2019-Apr-25 12:58N 26°05' W 080°07'0 0.0
2019-Apr-25 12:28N 26°05' W 080°07'0 0.0
2019-Apr-25 11:58N 26°05' W 080°07'0 0.0
2019-Apr-25 11:28N 26°05' W 080°07'0 0.0
2019-Apr-25 10:59N 26°05' W 080°07'0 0.9
2019-Apr-25 10:30N 26°06' W 080°07'5 9.1
2019-Apr-25 10:00N 26°05' W 080°02'815.5
2019-Apr-25 09:30N 25°57' W 079°60'917.6
2019-Apr-25 09:00N 25°49' W 079°58'918.2
2019-Apr-25 08:30N 25°39' W 079°57'1122.0
2019-Apr-25 08:01N 25°29' W 079°55'16620.7
2019-Apr-25 00:00N 22°54' W 078°48'22820.7 050 / 151017.010.8 25.020.427.0
2019-Apr-24 13:00N 21°06' W 075°12'9122.7 090 / 81017.027.0 26.0
2019-Apr-24 09:00N 20°12' W 073°54'9719.5 050 / 121017.010.8 25.323.424.0
2019-Apr-24 04:00N 19°24' W 075°24'139 9.2 020 / 131017.010.8 25.023.527.0
2019-Apr-23 13:00N 18°24' W 077°36'6 6.0 090 / 141018.0 25.9
2019-Apr-23 12:00N 18°30' W 077°36'23321.1 120 / 91017.010.8 24.322.422.0
2019-Apr-23 01:00N 19°42' W 073°42'8514.1 030 / 221017.010.8 26.023.128.0
2019-Apr-22 19:00N 19°42' W 072°12'54012.5 050 / 151018.0 27.024.128.0
2019-Apr-20 23:41N 25°30' W 079°39'315.7
2019-Apr-20 23:30N 25°33' W 079°40'815.3
2019-Apr-20 23:00N 25°41' W 079°41'815.3
2019-Apr-20 22:30N 25°47' W 079°45'815.5
2019-Apr-20 22:00N 25°53' W 079°51'815.2
2019-Apr-20 21:30N 25°59' W 079°57'815.4
2019-Apr-20 21:00N 26°04' W 080°03'4 8.1
2019-Apr-20 20:30N 26°05' W 080°07'0 0.2
2019-Apr-20 19:58N 26°05' W 080°07'0 0.0
2019-Apr-20 19:28N 26°05' W 080°07'0 0.0
2019-Apr-20 18:58N 26°05' W 080°07'0 0.0
2019-Apr-20 18:28N 26°05' W 080°07'0 0.0
2019-Apr-20 17:58N 26°05' W 080°07'0 0.0
2019-Apr-20 17:28N 26°05' W 080°07'0 0.0
2019-Apr-20 16:58N 26°05' W 080°07'0 0.0
2019-Apr-20 16:28N 26°05' W 080°07'0 0.0
2019-Apr-20 15:55N 26°05' W 080°07'0 0.0
2019-Apr-20 15:28N 26°05' W 080°07'0 0.0
2019-Apr-20 14:58N 26°05' W 080°07'0 0.0
2019-Apr-20 14:28N 26°05' W 080°07'0 0.0
2019-Apr-20 13:58N 26°05' W 080°07'0 0.0
2019-Apr-20 13:28N 26°05' W 080°07'0 0.0
2019-Apr-20 12:58N 26°05' W 080°07'0 0.0
2019-Apr-20 12:28N 26°05' W 080°07'0 0.0
2019-Apr-20 11:58N 26°05' W 080°07'0 0.0
2019-Apr-20 11:28N 26°05' W 080°07'0 0.0
2019-Apr-20 11:00N 26°05' W 080°07'1 1.0
2019-Apr-20 10:30N 26°06' W 080°07'611.4
2019-Apr-20 10:00N 26°06' W 080°00'3 6.4
2019-Apr-20 09:31N 26°07' W 079°57'4 7.5
2019-Apr-20 09:00N 26°07' W 079°53'4 8.8
2019-Apr-20 08:30N 26°09' W 079°48'4 8.7
2019-Apr-20 08:00N 26°10' W 079°43'5 9.4
2019-Apr-20 07:31N 26°11' W 079°38'5 9.5
2019-Apr-20 07:01N 26°12' W 079°33'5 9.1
2019-Apr-20 06:30N 26°13' W 079°28'25 0.9
2019-Apr-19 03:30N 25°48' W 079°27'917.8
2019-Apr-19 03:00N 25°41' W 079°33'917.7
2019-Apr-19 02:31N 25°34' W 079°38'917.6
2019-Apr-19 02:01N 25°26' W 079°43'917.8
2019-Apr-19 01:31N 25°19' W 079°48'48418.5
2019-Apr-17 23:17N 20°38' W 086°56'517.8
2019-Apr-17 23:01N 20°33' W 086°58'4 8.4
2019-Apr-17 22:30N 20°29' W 086°58'0 0.3
2019-Apr-17 21:58N 20°29' W 086°59'0 0.0
2019-Apr-17 21:28N 20°29' W 086°59'0 0.0
2019-Apr-17 20:58N 20°29' W 086°59'0 0.0
2019-Apr-17 20:28N 20°29' W 086°59'0 0.0
2019-Apr-17 19:58N 20°29' W 086°59'0 0.0
2019-Apr-17 19:28N 20°29' W 086°59'0 0.0
2019-Apr-17 18:58N 20°29' W 086°59'0 0.0
2019-Apr-17 18:28N 20°29' W 086°59'0 0.0
2019-Apr-17 17:58N 20°29' W 086°59'0 0.0
2019-Apr-17 17:28N 20°29' W 086°59'0 0.0
2019-Apr-17 16:58N 20°29' W 086°59'0 0.0
2019-Apr-17 16:28N 20°29' W 086°59'0 0.0
2019-Apr-17 15:58N 20°29' W 086°59'0 0.0
2019-Apr-17 15:28N 20°29' W 086°59'0 0.0
2019-Apr-17 14:58N 20°29' W 086°59'0 0.0
2019-Apr-17 14:28N 20°29' W 086°59'0 0.0
2019-Apr-17 13:58N 20°29' W 086°59'0 0.0
2019-Apr-17 13:28N 20°29' W 086°59'0 0.0
2019-Apr-17 12:58N 20°29' W 086°59'0 0.0
2019-Apr-17 12:28N 20°29' W 086°59'0 0.0
2019-Apr-17 12:00N 20°29' W 086°59'2 5.0
2019-Apr-17 11:30N 20°31' W 086°58'510.5
2019-Apr-17 11:00N 20°36' W 086°56'5 9.9
2019-Apr-17 10:30N 20°40' W 086°52'13512.9
2019-Apr-17 00:00N 22°12' W 085°06'32814.3 060 / 131019.0 26.023.127.0
2019-Apr-16 01:04N 25°12' W 080°06'112.5
2019-Apr-16 01:00N 25°12' W 080°06'612.5
2019-Apr-16 00:30N 25°18' W 080°02'612.7
2019-Apr-16 00:00N 25°24' W 080°01'612.6
2019-Apr-15 23:30N 25°30' W 079°60'612.6
2019-Apr-15 23:00N 25°37' W 079°59'612.9
2019-Apr-15 22:30N 25°43' W 079°59'713.1
2019-Apr-15 22:00N 25°50' W 079°60'713.3
2019-Apr-15 21:30N 25°56' W 080°01'713.6
2019-Apr-15 21:01N 26°03' W 080°02'5 9.9
2019-Apr-15 20:31N 26°06' W 080°07'0 0.8
2019-Apr-15 20:00N 26°05' W 080°07'0 0.0
2019-Apr-15 19:30N 26°05' W 080°07'0 0.0
2019-Apr-15 19:00N 26°05' W 080°07'0 0.0
2019-Apr-15 18:30N 26°05' W 080°07'0 0.0
2019-Apr-15 18:00N 26°05' W 080°07'0 0.0
2019-Apr-15 17:30N 26°05' W 080°07'0 0.0
2019-Apr-15 17:00N 26°05' W 080°07'0 0.0
2019-Apr-15 16:30N 26°05' W 080°07'0 0.0
2019-Apr-15 16:00N 26°05' W 080°07'0 0.0
2019-Apr-15 15:30N 26°05' W 080°07'  
Track history (hours):
 
Tides and Currents Weather Stations Pressure Air Temp Water Temp Dewpoint Dewpoint Depression Visibility Wind Speed Wind Dir Waves Ship Positions

Independence of the Seas

Last reported at 2019-Apr-25 15:28 UTC. Time now 2019-Apr-25 15:48 UTC.
Position N 26°05' W 080°07'.

Length 339 m; draft 8.8 m.

Type: Passenger vessel. MMSI: 309374000.

Date/timePositionNaut miles runAvg speedWind from/ knotsBaromVisibWave heightAir tempDewpointWater temp
2019-Apr-25 15:28N 26°05' W 080°07'0 0.0
2019-Apr-25 14:58N 26°05' W 080°07'0 0.0
2019-Apr-25 14:28N 26°05' W 080°07'0 0.0
2019-Apr-25 13:58N 26°05' W 080°07'0 0.0
2019-Apr-25 13:28N 26°05' W 080°07'0 0.0
2019-Apr-25 12:58N 26°05' W 080°07'0 0.0
2019-Apr-25 12:28N 26°05' W 080°07'0 0.0
2019-Apr-25 11:58N 26°05' W 080°07'0 0.0
2019-Apr-25 11:28N 26°05' W 080°07'0 0.0
2019-Apr-25 10:59N 26°05' W 080°07'0 0.9
2019-Apr-25 10:30N 26°06' W 080°07'5 9.1
2019-Apr-25 10:00N 26°05' W 080°02'815.5
2019-Apr-25 09:30N 25°57' W 079°60'917.6
2019-Apr-25 09:00N 25°49' W 079°58'918.2
2019-Apr-25 08:30N 25°39' W 079°57'1122.0
2019-Apr-25 08:01N 25°29' W 079°55'16620.7
2019-Apr-25 00:00N 22°54' W 078°48'22820.7 050 / 151017.010.8 25.020.427.0
2019-Apr-24 13:00N 21°06' W 075°12'9122.7 090 / 81017.027.0 26.0
2019-Apr-24 09:00N 20°12' W 073°54'9719.5 050 / 121017.010.8 25.323.424.0
2019-Apr-24 04:00N 19°24' W 075°24'139 9.2 020 / 131017.010.8 25.023.527.0
2019-Apr-23 13:00N 18°24' W 077°36'6 6.0 090 / 141018.0 25.9
2019-Apr-23 12:00N 18°30' W 077°36'23321.1 120 / 91017.010.8 24.322.422.0
2019-Apr-23 01:00N 19°42' W 073°42'8514.1 030 / 221017.010.8 26.023.128.0
2019-Apr-22 19:00N 19°42' W 072°12'54012.5 050 / 151018.0 27.024.128.0
2019-Apr-20 23:41N 25°30' W 079°39'315.7
2019-Apr-20 23:30N 25°33' W 079°40'815.3
2019-Apr-20 23:00N 25°41' W 079°41'815.3
2019-Apr-20 22:30N 25°47' W 079°45'815.5
2019-Apr-20 22:00N 25°53' W 079°51'815.2
2019-Apr-20 21:30N 25°59' W 079°57'815.4
2019-Apr-20 21:00N 26°04' W 080°03'4 8.1
2019-Apr-20 20:30N 26°05' W 080°07'0 0.2
2019-Apr-20 19:58N 26°05' W 080°07'0 0.0
2019-Apr-20 19:28N 26°05' W 080°07'0 0.0
2019-Apr-20 18:58N 26°05' W 080°07'0 0.0
2019-Apr-20 18:28N 26°05' W 080°07'0 0.0
2019-Apr-20 17:58N 26°05' W 080°07'0 0.0
2019-Apr-20 17:28N 26°05' W 080°07'0 0.0
2019-Apr-20 16:58N 26°05' W 080°07'0 0.0
2019-Apr-20 16:28N 26°05' W 080°07'0 0.0
2019-Apr-20 15:55N 26°05' W 080°07'0 0.0
2019-Apr-20 15:28N 26°05' W 080°07'0 0.0
2019-Apr-20 14:58N 26°05' W 080°07'0 0.0
2019-Apr-20 14:28N 26°05' W 080°07'0 0.0
2019-Apr-20 13:58N 26°05' W 080°07'0 0.0
2019-Apr-20 13:28N 26°05' W 080°07'0 0.0
2019-Apr-20 12:58N 26°05' W 080°07'0 0.0
2019-Apr-20 12:28N 26°05' W 080°07'0 0.0
2019-Apr-20 11:58N 26°05' W 080°07'0 0.0
2019-Apr-20 11:28N 26°05' W 080°07'0 0.0
2019-Apr-20 11:00N 26°05' W 080°07'1 1.0
2019-Apr-20 10:30N 26°06' W 080°07'611.4
2019-Apr-20 10:00N 26°06' W 080°00'3 6.4
2019-Apr-20 09:31N 26°07' W 079°57'4 7.5
2019-Apr-20 09:00N 26°07' W 079°53'4 8.8
2019-Apr-20 08:30N 26°09' W 079°48'4 8.7
2019-Apr-20 08:00N 26°10' W 079°43'5 9.4
2019-Apr-20 07:31N 26°11' W 079°38'5 9.5
2019-Apr-20 07:01N 26°12' W 079°33'5 9.1
2019-Apr-20 06:30N 26°13' W 079°28'25 0.9
2019-Apr-19 03:30N 25°48' W 079°27'917.8
2019-Apr-19 03:00N 25°41' W 079°33'917.7
2019-Apr-19 02:31N 25°34' W 079°38'917.6
2019-Apr-19 02:01N 25°26' W 079°43'917.8
2019-Apr-19 01:31N 25°19' W 079°48'48418.5
2019-Apr-17 23:17N 20°38' W 086°56'517.8
2019-Apr-17 23:01N 20°33' W 086°58'4 8.4
2019-Apr-17 22:30N 20°29' W 086°58'0 0.3
2019-Apr-17 21:58N 20°29' W 086°59'0 0.0
2019-Apr-17 21:28N 20°29' W 086°59'0 0.0
2019-Apr-17 20:58N 20°29' W 086°59'0 0.0
2019-Apr-17 20:28N 20°29' W 086°59'0 0.0
2019-Apr-17 19:58N 20°29' W 086°59'0 0.0
2019-Apr-17 19:28N 20°29' W 086°59'0 0.0
2019-Apr-17 18:58N 20°29' W 086°59'0 0.0
2019-Apr-17 18:28N 20°29' W 086°59'0 0.0
2019-Apr-17 17:58N 20°29' W 086°59'0 0.0
2019-Apr-17 17:28N 20°29' W 086°59'0 0.0
2019-Apr-17 16:58N 20°29' W 086°59'0 0.0
2019-Apr-17 16:28N 20°29' W 086°59'0 0.0
2019-Apr-17 15:58N 20°29' W 086°59'0 0.0
2019-Apr-17 15:28N 20°29' W 086°59'0 0.0
2019-Apr-17 14:58N 20°29' W 086°59'0 0.0
2019-Apr-17 14:28N 20°29' W 086°59'0 0.0
2019-Apr-17 13:58N 20°29' W 086°59'0 0.0
2019-Apr-17 13:28N 20°29' W 086°59'0 0.0
2019-Apr-17 12:58N 20°29' W 086°59'0 0.0
2019-Apr-17 12:28N 20°29' W 086°59'0 0.0
2019-Apr-17 12:00N 20°29' W 086°59'2 5.0
2019-Apr-17 11:30N 20°31' W 086°58'510.5
2019-Apr-17 11:00N 20°36' W 086°56'5 9.9
2019-Apr-17 10:30N 20°40' W 086°52'13512.9
2019-Apr-17 00:00N 22°12' W 085°06'32814.3 060 / 131019.0 26.023.127.0
2019-Apr-16 01:04N 25°12' W 080°06'112.5
2019-Apr-16 01:00N 25°12' W 080°06'612.5
2019-Apr-16 00:30N 25°18' W 080°02'612.7
2019-Apr-16 00:00N 25°24' W 080°01'612.6
2019-Apr-15 23:30N 25°30' W 079°60'612.6
2019-Apr-15 23:00N 25°37' W 079°59'612.9
2019-Apr-15 22:30N 25°43' W 079°59'713.1
2019-Apr-15 22:00N 25°50' W 079°60'713.3
2019-Apr-15 21:30N 25°56' W 080°01'713.6
2019-Apr-15 21:01N 26°03' W 080°02'5 9.9
2019-Apr-15 20:31N 26°06' W 080°07'0 0.8
2019-Apr-15 20:00N 26°05' W 080°07'0 0.0
2019-Apr-15 19:30N 26°05' W 080°07'0 0.0
2019-Apr-15 19:00N 26°05' W 080°07'0 0.0
2019-Apr-15 18:30N 26°05' W 080°07'0 0.0
2019-Apr-15 18:00N 26°05' W 080°07'0 0.0
2019-Apr-15 17:30N 26°05' W 080°07'0 0.0
2019-Apr-15 17:00N 26°05' W 080°07'0 0.0
2019-Apr-15 16:30N 26°05' W 080°07'0 0.0
2019-Apr-15 16:00N 26°05' W 080°07'0 0.0
2019-Apr-15 15:30N 26°05' W 080°07'  

Dump ship's entire track history